ESNS

Skellefteå Airport

Skellefteå, Sweden
TAF AMD ESNS 210733Z 2107/2110 VRB03KT 3000 BR OVC002 BECMG 2107/2109 8000 NSW SCT002 BKN005 TEMPO 2109/2110 SCT005
Issued Valid From Valid To
Apr-21 @ 07:33 UTC
(2 hours ago)
Apr-21 @ 07:00 UTC
(3 hours ago)
Apr-21 @ 10:00 UTC
(in 9 minutes)
Apr-21 @ 07:00 to Apr-21 @ 10:00
TAF AMD ESNS 210733Z 2107/2110 VRB03KT 3000 BR OVC002
Wind Visibility Clouds Conditions
Variable at 3 knots 2,993 meters
  • Overcast at 200' AGL
  • Mist
Becoming Apr-21 @ 07:00 to Apr-21 @ 10:00
BECMG 2107/2109 8000 NSW SCT002 BKN005
Wind Visibility Clouds Conditions
Variable at 3 knots 7,998 meters
  • Scattered at 200' AGL
  • Broken at 500' AGL
Temporary Apr-21 @ 09:00 to Apr-21 @ 10:00
TEMPO 2109/2110 SCT005
Clouds
  • Scattered at 500' AGL
TAF AMD ESNS 210733Z 2107/2110 VRB03KT 3000 BR OVC002 BECMG 2107/2109 8000 NSW SCT002 BKN005 TEMPO 2109/2110 SCT005
Issued Apr-21 @ 07:33 UTC
(2 hours ago)
Valid From Apr-21 @ 07:00 UTC
(3 hours ago)
Valid To Apr-21 @ 10:00 UTC
(in 9 minutes)
Apr-21 @ 07:00 - Apr-21 @ 10:00
Wind Visibility
Variable at 3 knots 2,993 meters
Clouds
  • Overcast at 200' AGL
Conditions
  • Mist
Becoming Apr-21 @ 07:00 - Apr-21 @ 10:00
Wind Visibility
Variable at 3 knots 7,998 meters
Clouds
  • Scattered at 200' AGL
  • Broken at 500' AGL
Conditions
Temporary Apr-21 @ 09:00 - Apr-21 @ 10:00
Clouds
  • Scattered at 500' AGL